createdAt,value
2023-04-27T00:02:21.251Z,92.50
2023-04-27T00:04:48.274Z,92.60
2023-04-27T00:07:16.626Z,92.70
2023-04-27T00:09:44.072Z,92.60
2023-04-27T00:12:10.925Z,92.60
2023-04-27T00:14:38.300Z,92.70
2023-04-27T00:17:07.690Z,92.80
2023-04-27T00:19:35.039Z,92.90
2023-04-27T00:22:01.954Z,93.00
2023-04-27T00:24:28.741Z,93.10
2023-04-27T00:26:55.658Z,93.10
2023-04-27T00:29:23.981Z,93.10
2023-04-27T00:31:51.678Z,93.20
2023-04-27T00:34:18.770Z,93.30
2023-04-27T00:36:45.638Z,93.40
2023-04-27T00:39:13.050Z,93.40
2023-04-27T00:41:42.523Z,93.50
2023-04-27T00:44:09.427Z,93.50
2023-04-27T00:46:37.043Z,93.60
2023-04-27T00:49:05.197Z,93.80
2023-04-27T00:51:32.321Z,93.80
2023-04-27T00:54:01.043Z,93.80
2023-04-27T00:56:28.070Z,93.90
2023-04-27T00:58:55.017Z,94.00
2023-04-27T01:01:21.915Z,94.00
2023-04-27T01:03:49.961Z,94.10
2023-04-27T01:06:17.205Z,94.20
2023-04-27T01:08:44.194Z,94.30
2023-04-27T01:11:11.138Z,94.40
2023-04-27T01:13:38.074Z,94.50
2023-04-27T01:16:05.320Z,94.50
2023-04-27T01:18:35.974Z,94.50
2023-04-27T01:21:03.290Z,94.60
2023-04-27T01:23:30.304Z,94.70
2023-04-27T01:25:57.118Z,94.70
2023-04-27T01:28:24.474Z,94.80
2023-04-27T01:33:18.917Z,94.60
2023-04-27T01:35:46.591Z,94.80
2023-04-27T01:38:13.692Z,94.90
2023-04-27T01:40:40.523Z,95.00
2023-04-27T01:43:07.345Z,95.10
2023-04-27T01:45:34.147Z,95.20
2023-04-27T01:48:01.783Z,95.30
2023-04-27T01:50:28.618Z,95.40
2023-04-27T01:52:55.737Z,95.50
2023-04-27T01:55:22.656Z,95.60
2023-04-27T01:57:49.558Z,95.70
2023-04-27T02:00:18.912Z,95.70
2023-04-27T02:02:46.767Z,95.80
2023-04-27T02:05:13.708Z,95.90
2023-04-27T02:07:40.462Z,96.00
2023-04-27T02:10:07.773Z,96.00
2023-04-27T02:12:34.642Z,96.10
2023-04-27T02:15:02.194Z,96.20
2023-04-27T02:17:31.306Z,96.20
2023-04-27T02:19:58.200Z,96.30
2023-04-27T02:22:25.205Z,96.40
2023-04-27T02:24:52.936Z,96.50
2023-04-27T02:27:20.029Z,96.60
2023-04-27T02:29:47.368Z,96.70
2023-04-27T02:32:14.761Z,96.70
2023-04-27T02:34:41.867Z,96.80
2023-04-27T02:37:08.927Z,96.80
2023-04-27T02:39:35.866Z,96.90
2023-04-27T02:42:03.785Z,96.90
2023-04-27T02:44:30.692Z,97.00
2023-04-27T02:46:57.726Z,97.00
2023-04-27T02:49:26.227Z,97.10
2023-04-27T02:51:53.439Z,97.20
2023-04-27T02:54:20.570Z,97.20
2023-04-27T02:56:47.681Z,97.30
2023-04-27T02:59:15.731Z,97.40
2023-04-27T03:01:43.089Z,97.40
2023-04-27T03:04:10.906Z,97.50
2023-04-27T03:06:37.877Z,97.50
2023-04-27T03:09:05.520Z,97.50
2023-04-27T03:11:32.572Z,97.60
2023-04-27T03:14:05.332Z,97.70
2023-04-27T03:16:33.046Z,97.70
2023-04-27T03:18:59.969Z,97.80
2023-04-27T03:21:29.729Z,97.80
2023-04-27T03:23:56.577Z,97.90
2023-04-27T03:26:23.920Z,97.90
2023-04-27T03:28:52.564Z,97.90
2023-04-27T03:31:20.346Z,98.00
2023-04-27T03:33:47.370Z,98.10
2023-04-27T03:36:14.535Z,98.20
2023-04-27T03:38:42.059Z,98.20
2023-04-27T03:41:09.019Z,98.30
2023-04-27T03:43:36.353Z,98.40
2023-04-27T03:46:03.738Z,98.40
2023-04-27T03:48:30.870Z,98.40
2023-04-27T03:50:57.769Z,98.50
2023-04-27T03:53:24.690Z,98.60
2023-04-27T03:55:51.670Z,98.70
2023-04-27T03:58:18.790Z,98.70
2023-04-27T04:00:45.985Z,98.80
2023-04-27T04:03:13.675Z,98.90
2023-04-27T04:05:42.217Z,98.90
2023-04-27T04:08:10.906Z,99.00
2023-04-27T04:10:37.874Z,99.00
2023-04-27T04:13:04.724Z,99.00
2023-04-27T04:15:31.610Z,99.10
2023-04-27T04:17:58.639Z,99.40
2023-04-27T04:20:25.879Z,99.20
2023-04-27T04:22:52.828Z,99.30
2023-04-27T04:25:20.918Z,99.30
2023-04-27T04:27:48.646Z,99.30
2023-04-27T04:30:16.010Z,99.30
2023-04-27T04:32:45.293Z,99.40
2023-04-27T04:35:12.298Z,99.40
2023-04-27T04:37:39.384Z,99.50
2023-04-27T04:40:09.179Z,99.50
2023-04-27T04:42:39.299Z,99.50
2023-04-27T04:45:07.424Z,99.50
2023-04-27T04:47:35.583Z,99.60
2023-04-27T04:50:02.711Z,99.60
2023-04-27T04:52:30.850Z,99.70
2023-04-27T04:54:57.638Z,99.70
2023-04-27T04:57:24.494Z,99.70
2023-04-27T04:59:51.434Z,99.80
2023-04-27T05:02:19.425Z,99.90
2023-04-27T05:04:52.804Z,99.90
2023-04-27T05:07:24.141Z,99.90
2023-04-27T05:09:52.662Z,99.90
2023-04-27T05:12:20.779Z,99.90
2023-04-27T05:14:51.215Z,99.90
2023-04-27T05:17:19.671Z,99.80
2023-04-27T05:19:47.895Z,99.90
2023-04-27T05:22:14.806Z,99.80
2023-04-27T05:24:44.302Z,99.50
2023-04-27T05:27:13.911Z,99.30
2023-04-27T05:29:41.727Z,99.30
2023-04-27T05:32:09.468Z,99.30
2023-04-27T05:34:39.681Z,99.00
2023-04-27T05:37:07.397Z,99.00
2023-04-27T05:39:34.227Z,98.90
2023-04-27T05:42:02.699Z,98.90
2023-04-27T05:44:29.590Z,99.00
2023-04-27T05:46:56.527Z,98.80
2023-04-27T05:49:25.443Z,97.70
2023-04-27T05:51:54.010Z,97.00
2023-04-27T05:54:21.187Z,96.10
2023-04-27T05:56:50.970Z,95.00
2023-04-27T05:59:18.392Z,93.40
2023-04-27T06:01:45.558Z,92.20
2023-04-27T06:04:12.612Z,91.20
2023-04-27T06:06:39.612Z,90.40
2023-04-27T06:09:06.739Z,88.80
2023-04-27T06:11:33.582Z,85.60
2023-04-27T06:14:01.848Z,82.50
2023-04-27T06:16:28.802Z,80.50
2023-04-27T06:18:55.691Z,79.40
2023-04-27T06:21:22.664Z,78.10
2023-04-27T06:23:49.793Z,76.30
2023-04-27T06:26:16.612Z,73.80
2023-04-27T06:28:43.602Z,72.80
2023-04-27T06:31:10.517Z,71.30
2023-04-27T06:33:45.714Z,68.20
2023-04-27T06:36:12.600Z,67.40
2023-04-27T06:38:39.420Z,65.80
2023-04-27T06:41:06.724Z,64.20
2023-04-27T06:43:33.677Z,63.70
2023-04-27T06:46:00.732Z,64.00
2023-04-27T06:48:27.622Z,63.90
2023-04-27T06:50:54.565Z,61.20
2023-04-27T06:53:24.361Z,58.90
2023-04-27T06:55:51.219Z,57.80
2023-04-27T06:58:18.016Z,56.50
2023-04-27T07:00:44.942Z,56.50
2023-04-27T07:03:12.624Z,55.90
2023-04-27T07:05:39.607Z,54.60
2023-04-27T07:08:08.807Z,54.00
2023-04-27T07:10:36.468Z,53.10
2023-04-27T07:13:03.390Z,51.20
2023-04-27T07:15:31.769Z,49.50
2023-04-27T07:17:58.732Z,49.50
2023-04-27T07:20:25.882Z,49.00
2023-04-27T07:22:52.754Z,47.80
2023-04-27T07:25:20.019Z,47.20
2023-04-27T07:27:47.974Z,46.50
2023-04-27T07:30:15.709Z,45.60
2023-04-27T07:32:43.197Z,44.70
2023-04-27T07:35:10.979Z,44.10
2023-04-27T07:37:38.469Z,43.10
2023-04-27T07:40:14.493Z,41.70
2023-04-27T07:42:42.135Z,42.50
2023-04-27T07:45:10.188Z,42.40
2023-04-27T07:47:37.388Z,41.10
2023-04-27T07:50:06.342Z,40.90
2023-04-27T07:52:37.330Z,40.60
2023-04-27T07:55:04.743Z,40.40
2023-04-27T07:57:31.741Z,39.50
2023-04-27T07:59:58.552Z,38.30
2023-04-27T08:02:31.055Z,37.70
2023-04-27T08:04:58.367Z,37.90
2023-04-27T08:07:26.210Z,37.40
2023-04-27T08:09:53.366Z,37.70
2023-04-27T08:12:21.331Z,37.90
2023-04-27T08:14:48.320Z,37.50
2023-04-27T08:17:15.486Z,37.00
2023-04-27T08:19:42.295Z,36.50
2023-04-27T08:22:10.295Z,36.20
2023-04-27T08:24:37.515Z,35.90
2023-04-27T08:27:05.754Z,35.80
2023-04-27T08:29:35.191Z,34.50
2023-04-27T08:32:03.257Z,35.00
2023-04-27T08:34:31.433Z,33.30
2023-04-27T08:36:58.443Z,33.90
2023-04-27T08:39:25.636Z,33.80
2023-04-27T08:41:52.648Z,33.30
2023-04-27T08:44:19.554Z,33.10
2023-04-27T08:46:47.089Z,33.30
2023-04-27T08:49:16.570Z,33.00
2023-04-27T08:51:44.482Z,31.90
2023-04-27T08:54:11.425Z,32.70
2023-04-27T08:56:39.314Z,32.50
2023-04-27T08:59:15.587Z,30.90
2023-04-27T09:01:50.577Z,30.60
2023-04-27T09:04:18.757Z,30.00
2023-04-27T09:06:46.271Z,29.70
2023-04-27T09:09:24.078Z,30.30
2023-04-27T09:11:51.607Z,29.20
2023-04-27T09:14:21.294Z,29.50
2023-04-27T09:16:57.673Z,28.40
2023-04-27T09:19:30.186Z,28.30
2023-04-27T09:22:07.965Z,28.80
2023-04-27T09:24:35.103Z,27.40
2023-04-27T09:27:03.304Z,28.00
2023-04-27T09:29:38.028Z,27.60
2023-04-27T09:32:19.426Z,27.30
2023-04-27T09:34:46.635Z,27.30
2023-04-27T09:37:15.081Z,27.70
2023-04-27T09:39:42.994Z,27.00
2023-04-27T09:42:11.487Z,27.10
2023-04-27T09:44:41.640Z,27.30
2023-04-27T09:47:09.306Z,27.00
2023-04-27T09:49:39.077Z,27.00
2023-04-27T09:52:07.011Z,26.20
2023-04-27T09:54:36.258Z,26.60
2023-04-27T09:57:17.426Z,27.40
2023-04-27T10:00:12.795Z,26.30
2023-04-27T10:02:53.774Z,26.40
2023-04-27T10:05:50.937Z,26.80
2023-04-27T10:08:18.374Z,27.40
2023-04-27T10:10:53.212Z,27.20
2023-04-27T10:13:27.539Z,26.90
2023-04-27T10:15:56.973Z,26.60
2023-04-27T10:18:29.466Z,27.20
2023-04-27T10:20:56.953Z,27.70
2023-04-27T10:23:28.137Z,28.10
2023-04-27T10:25:55.769Z,26.90
2023-04-27T10:28:22.771Z,26.40
2023-04-27T10:30:50.261Z,27.30
2023-04-27T10:33:19.310Z,27.00
2023-04-27T10:35:58.328Z,27.10
2023-04-27T10:38:30.379Z,27.20
2023-04-27T10:41:01.722Z,27.40
2023-04-27T10:43:31.966Z,27.60
2023-04-27T10:46:12.826Z,26.70
2023-04-27T10:48:42.799Z,27.00
2023-04-27T10:51:10.395Z,26.70
2023-04-27T10:53:38.131Z,26.60
2023-04-27T10:56:09.340Z,26.60
2023-04-27T11:01:10.142Z,25.80
2023-04-27T11:03:37.555Z,25.60
2023-04-27T11:06:06.166Z,25.60
2023-04-27T11:08:49.929Z,26.00
2023-04-27T11:11:18.324Z,25.60
2023-04-27T11:13:49.000Z,25.80
2023-04-27T11:16:17.107Z,25.60
2023-04-27T11:18:44.164Z,26.10
2023-04-27T11:21:19.125Z,25.00
2023-04-27T11:23:47.224Z,24.90
2023-04-27T11:39:41.304Z,23.90
2023-04-27T11:42:11.054Z,24.30
2023-04-27T11:44:39.243Z,23.90
2023-04-27T11:47:08.100Z,24.00
2023-04-27T11:49:35.336Z,24.00
2023-04-27T11:52:03.114Z,24.60
2023-04-27T11:54:30.093Z,25.10
2023-04-27T11:57:06.286Z,24.60
2023-04-27T11:59:33.129Z,24.50
2023-04-27T12:02:05.253Z,24.50
2023-04-27T12:04:32.864Z,25.30
2023-04-27T12:07:04.421Z,24.50
2023-04-27T12:09:32.113Z,24.50
2023-04-27T12:12:24.454Z,24.20
2023-04-27T12:14:52.350Z,24.60
2023-04-27T12:17:19.755Z,23.90
2023-04-27T12:19:46.993Z,24.30
2023-04-27T12:22:16.028Z,24.70
2023-04-27T12:24:42.852Z,24.50
2023-04-27T12:27:09.954Z,25.30
2023-04-27T12:29:37.935Z,25.00
2023-04-27T12:32:06.273Z,24.70
2023-04-27T12:34:35.231Z,24.30
2023-04-27T12:37:02.083Z,24.30
2023-04-27T12:44:59.548Z,24.50
2023-04-27T12:47:49.858Z,24.90
2023-04-27T12:50:15.987Z,24.50
2023-04-27T12:52:42.965Z,24.80
2023-04-27T12:55:21.188Z,24.60
2023-04-27T12:57:58.154Z,25.00
2023-04-27T13:00:25.589Z,24.40
2023-04-27T13:02:53.048Z,25.40
2023-04-27T13:05:22.130Z,25.70
2023-04-27T13:07:49.283Z,24.60
2023-04-27T13:10:16.336Z,23.90
2023-04-27T13:12:43.326Z,24.80
2023-04-27T13:15:10.954Z,25.00
2023-04-27T13:17:44.053Z,25.00
2023-04-27T13:20:11.912Z,25.60
2023-04-27T13:22:40.858Z,26.10
2023-04-27T13:25:09.523Z,26.10
2023-04-27T13:27:38.194Z,26.50
2023-04-27T13:30:07.032Z,26.20
2023-04-27T13:35:09.409Z,26.80
2023-04-27T13:37:36.325Z,27.00
2023-04-27T13:40:03.561Z,26.80
2023-04-27T13:50:48.261Z,27.60
2023-04-27T13:53:17.172Z,27.20
2023-04-27T13:55:44.732Z,27.90
2023-04-27T13:58:12.000Z,28.40
2023-04-27T14:00:39.514Z,28.40
2023-04-27T14:03:08.950Z,27.60
2023-04-27T14:05:39.122Z,28.10
2023-04-27T14:08:06.093Z,28.40
2023-04-27T14:16:08.890Z,28.20
2023-04-27T14:18:35.753Z,28.70
2023-04-27T14:21:06.719Z,29.40
2023-04-27T14:23:34.964Z,28.80
2023-04-27T14:26:02.126Z,29.10
2023-04-27T14:28:33.499Z,29.50
2023-04-27T14:31:00.541Z,29.70
2023-04-27T14:33:27.535Z,29.10
2023-04-27T14:35:56.308Z,30.00
2023-04-27T14:38:26.860Z,30.00
2023-04-27T14:40:58.189Z,30.00
2023-04-27T14:43:29.319Z,30.00
2023-04-27T14:46:05.060Z,30.00
2023-04-27T14:48:59.873Z,29.60
2023-04-27T14:51:26.957Z,30.00
2023-04-27T14:53:54.099Z,29.60
2023-04-27T14:56:24.373Z,29.90
2023-04-27T14:58:51.888Z,30.00
2023-04-27T15:01:21.271Z,30.30
2023-04-27T15:03:49.067Z,30.80
2023-04-27T15:10:36.870Z,30.50
2023-04-27T15:13:05.016Z,30.80
2023-04-27T15:15:31.874Z,31.20
2023-04-27T15:18:01.501Z,31.70
2023-04-27T15:20:32.236Z,31.70
2023-04-27T15:23:02.229Z,31.50
2023-04-27T15:25:29.710Z,31.70
2023-04-27T15:27:56.748Z,32.10
2023-04-27T15:30:23.761Z,32.50
2023-04-27T15:32:51.886Z,32.40
2023-04-27T15:35:19.036Z,32.30
2023-04-27T15:37:49.744Z,32.70
2023-04-27T15:40:17.726Z,32.90
2023-04-27T15:42:44.734Z,33.30
2023-04-27T15:45:19.224Z,33.00
2023-04-27T15:47:47.547Z,33.20
2023-04-27T15:50:16.686Z,33.30
2023-04-27T15:52:48.450Z,33.60
2023-04-27T15:55:17.507Z,33.50
2023-04-27T15:57:44.870Z,33.10
2023-04-27T16:00:13.203Z,33.00
2023-04-27T16:05:24.930Z,33.10
2023-04-27T16:07:52.098Z,33.00
2023-04-27T16:10:18.996Z,33.30
2023-04-27T16:12:46.742Z,33.50
2023-04-27T16:15:22.419Z,33.70
2023-04-27T16:17:49.954Z,34.50
2023-04-27T16:20:17.303Z,35.50
2023-04-27T16:22:44.145Z,34.70
2023-04-27T16:25:14.885Z,35.10
2023-04-27T16:27:43.253Z,35.40
2023-04-27T16:30:11.764Z,35.00
2023-04-27T16:32:38.781Z,34.80
2023-04-27T16:35:08.990Z,35.00
2023-04-27T16:37:37.174Z,35.10
2023-04-27T16:40:13.569Z,35.20
2023-04-27T16:42:41.836Z,35.10
2023-04-27T16:45:10.680Z,35.30
2023-04-27T16:47:39.252Z,36.20
2023-04-27T16:50:09.708Z,36.30
2023-04-27T16:52:37.155Z,36.50
2023-04-27T16:55:06.351Z,36.80
2023-04-27T16:57:47.466Z,36.60
2023-04-27T17:00:17.998Z,36.70
2023-04-27T17:02:47.350Z,37.40
2023-04-27T17:05:26.284Z,37.40
2023-04-27T17:07:53.742Z,36.90
2023-04-27T17:10:22.560Z,36.90
2023-04-27T17:12:51.616Z,37.10
2023-04-27T17:15:19.814Z,36.90
2023-04-27T17:17:52.595Z,36.80
2023-04-27T17:20:23.404Z,37.10
2023-04-27T17:22:53.404Z,37.30
2023-04-27T17:25:24.962Z,38.00
2023-04-27T17:27:52.806Z,37.90
2023-04-27T17:30:21.340Z,38.20
2023-04-27T17:32:54.316Z,38.60
2023-04-27T17:35:21.821Z,39.10
2023-04-27T17:37:50.869Z,38.90
2023-04-27T17:40:23.320Z,38.80
2023-04-27T17:42:57.970Z,38.70
2023-04-27T17:45:29.006Z,39.10
2023-04-27T17:48:00.077Z,39.30
2023-04-27T17:50:39.469Z,39.30
2023-04-27T17:53:07.967Z,39.50
2023-04-27T17:55:36.826Z,39.80
2023-04-27T17:58:06.925Z,39.80
2023-04-27T18:00:43.524Z,40.00
2023-04-27T18:03:17.545Z,40.10
2023-04-27T18:05:50.969Z,40.10
2023-04-27T18:08:21.626Z,40.20
2023-04-27T18:10:51.459Z,40.50
2023-04-27T18:13:18.656Z,40.70
2023-04-27T18:15:50.924Z,40.90
2023-04-27T18:18:34.680Z,41.00
2023-04-27T18:21:06.991Z,41.20
2023-04-27T18:23:42.749Z,41.30
2023-04-27T18:26:12.210Z,41.50
2023-04-27T18:28:44.978Z,41.70
2023-04-27T18:31:20.498Z,41.70
2023-04-27T18:33:48.483Z,41.80
2023-04-27T18:36:18.690Z,41.60
2023-04-27T18:38:49.491Z,42.00
2023-04-27T18:41:23.430Z,42.70
2023-04-27T18:43:52.495Z,42.10
2023-04-27T18:46:21.282Z,42.40
2023-04-27T18:48:51.988Z,42.60
2023-04-27T18:51:19.182Z,42.90
2023-04-27T18:53:46.805Z,42.80
2023-04-27T18:56:19.598Z,43.00
2023-04-27T19:01:33.603Z,42.90
2023-04-27T19:04:03.803Z,43.10
2023-04-27T19:06:34.716Z,43.20
2023-04-27T19:09:03.237Z,43.30
2023-04-27T19:11:31.403Z,43.40
2023-04-27T19:13:58.562Z,44.20
2023-04-27T19:16:25.773Z,43.60
2023-04-27T19:18:55.596Z,43.80
2023-04-27T19:21:22.922Z,44.10
2023-04-27T19:23:52.561Z,43.90
2023-04-27T19:26:19.943Z,44.10
2023-04-27T19:28:47.109Z,44.00
2023-04-27T19:31:15.142Z,44.10
2023-04-27T19:33:47.417Z,44.60
2023-04-27T19:36:21.970Z,44.60
2023-04-27T19:38:52.387Z,44.50
2023-04-27T19:41:19.587Z,44.90
2023-04-27T19:43:49.577Z,45.00
2023-04-27T19:46:17.422Z,44.80
2023-04-27T19:48:45.395Z,45.00
2023-04-27T19:51:12.410Z,45.20
2023-04-27T19:53:39.850Z,45.70
2023-04-27T19:56:07.602Z,46.20
2023-04-27T19:58:35.802Z,45.80
2023-04-27T20:01:05.069Z,45.70
2023-04-27T20:03:33.161Z,45.80
2023-04-27T20:06:00.527Z,45.60
2023-04-27T20:08:27.727Z,45.50
2023-04-27T20:10:54.598Z,45.80
2023-04-27T20:13:21.945Z,46.10
2023-04-27T20:15:48.921Z,46.10
2023-04-27T20:18:15.952Z,46.00
2023-04-27T20:20:42.895Z,46.20
2023-04-27T20:23:12.683Z,46.20
2023-04-27T20:25:43.070Z,46.20
2023-04-27T20:28:09.865Z,46.20
2023-04-27T20:30:37.557Z,46.30
2023-04-27T20:33:04.739Z,46.60
2023-04-27T20:35:34.005Z,46.90
2023-04-27T20:38:02.122Z,47.00
2023-04-27T20:40:29.532Z,47.10
2023-04-27T20:42:56.520Z,47.30
2023-04-27T20:45:24.273Z,47.10
2023-04-27T20:47:53.510Z,47.10
2023-04-27T20:50:21.367Z,47.30
2023-04-27T20:52:51.336Z,47.60
2023-04-27T20:55:18.406Z,47.70
2023-04-27T20:57:47.327Z,47.20
2023-04-27T21:00:16.860Z,47.30
2023-04-27T21:02:44.914Z,47.40
2023-04-27T21:05:17.353Z,47.50
2023-04-27T21:07:46.529Z,47.90
2023-04-27T21:10:14.058Z,48.00
2023-04-27T21:12:41.229Z,48.20
2023-04-27T21:15:11.062Z,48.30
2023-04-27T21:17:38.328Z,48.40
2023-04-27T21:20:06.907Z,48.70
2023-04-27T21:22:34.325Z,48.90
2023-04-27T21:25:01.446Z,48.90
2023-04-27T21:27:29.188Z,49.10
2023-04-27T21:29:56.584Z,49.20
2023-04-27T21:32:23.471Z,49.60
2023-04-27T21:34:50.726Z,49.70
2023-04-27T21:37:18.145Z,50.00
2023-04-27T21:39:50.331Z,50.30
2023-04-27T21:42:19.320Z,50.40
2023-04-27T21:44:47.436Z,50.50
2023-04-27T21:47:15.489Z,50.60
2023-04-27T21:49:43.411Z,50.80
2023-04-27T21:52:11.220Z,51.50
2023-04-27T21:54:39.294Z,51.10
2023-04-27T21:57:07.799Z,51.10
2023-04-27T21:59:35.274Z,51.20
2023-04-27T22:02:06.916Z,51.40
2023-04-27T22:04:36.118Z,51.30
2023-04-27T22:07:03.871Z,51.30
2023-04-27T22:09:30.988Z,51.40
2023-04-27T22:11:57.856Z,51.60
2023-04-27T22:14:25.091Z,51.70
2023-04-27T22:16:51.930Z,51.80
2023-04-27T22:19:20.489Z,51.70
2023-04-27T22:21:51.627Z,51.90
2023-04-27T22:24:19.736Z,51.80
2023-04-27T22:26:57.056Z,51.90
2023-04-27T22:29:23.915Z,52.00
2023-04-27T22:31:52.920Z,52.30
2023-04-27T22:34:23.471Z,52.20
2023-04-27T22:36:51.692Z,52.40
2023-04-27T22:39:20.885Z,52.60
2023-04-27T22:41:47.859Z,52.90
2023-04-27T22:44:14.930Z,52.60
2023-04-27T22:46:43.862Z,52.50
2023-04-27T22:49:12.282Z,52.90
2023-04-27T22:51:40.678Z,52.90
2023-04-27T22:54:07.549Z,52.70
2023-04-27T22:56:36.224Z,52.70
2023-04-27T22:59:03.175Z,52.90
2023-04-27T23:01:31.232Z,52.90
2023-04-27T23:03:59.874Z,53.10
2023-04-27T23:06:29.189Z,53.20
2023-04-27T23:08:56.898Z,53.70
2023-04-27T23:11:26.934Z,53.50
2023-04-27T23:13:55.314Z,53.50
2023-04-27T23:16:23.527Z,53.50
2023-04-27T23:18:52.252Z,53.40
2023-04-27T23:21:20.436Z,53.30
2023-04-27T23:23:47.618Z,53.40
2023-04-27T23:26:16.600Z,53.40
2023-04-27T23:28:43.893Z,53.40
2023-04-27T23:31:11.334Z,53.40
2023-04-27T23:33:38.454Z,53.40
2023-04-27T23:36:08.040Z,53.40
2023-04-27T23:38:38.301Z,53.60
2023-04-27T23:41:07.629Z,53.60
2023-04-27T23:43:34.572Z,53.60
2023-04-27T23:46:01.535Z,53.80
2023-04-27T23:48:30.560Z,53.90
2023-04-27T23:51:05.607Z,54.00
2023-04-27T23:53:32.607Z,54.10
2023-04-27T23:55:59.464Z,54.20
2023-04-27T23:58:27.122Z,54.20
